Time;durP1;ratioP1;P1;durP2;ratioP2;P2;SDS_P1;SDS_P2;PMS_P1;PMS_P2;Temp;Humidity;BMP_temperature;BMP_pressure;BME280_temperature;BME280_humidity;BME280_pressure;Samples;Min_cycle;Max_cycle;Signal;HPM_P1;HPM_P2
2020/12/25 00:00:38;;;;;;;56.85;4.30;;;1.60;67.70;;;;;;5054382;28;20211;-71
2020/12/25 00:03:05;;;;;;;57.70;3.80;;;1.60;68.70;;;;;;5054330;28;20384;-70
2020/12/25 00:05:31;;;;;;;57.55;4.30;;;1.60;67.80;;;;;;5054434;28;20610;-71
2020/12/25 00:07:57;;;;;;;56.83;4.00;;;1.60;68.90;;;;;;5054086;28;20205;-71
2020/12/25 00:10:24;;;;;;;57.08;4.45;;;1.60;69.30;;;;;;5054145;28;20233;-70
2020/12/25 00:12:51;;;;;;;57.13;4.55;;;1.60;70.10;;;;;;5054225;28;20228;-71
2020/12/25 00:15:17;;;;;;;57.03;4.45;;;1.70;69.30;;;;;;5053997;28;20206;-71
2020/12/25 00:17:43;;;;;;;58.13;4.53;;;1.70;70.10;;;;;;5053741;28;20210;-71
2020/12/25 00:20:10;;;;;;;57.28;4.18;;;1.70;69.80;;;;;;5054110;28;20570;-70
2020/12/25 00:22:36;;;;;;;62.30;5.25;;;1.70;70.00;;;;;;5054203;28;20271;-71
2020/12/25 00:25:02;;;;;;;57.45;4.32;;;1.70;70.10;;;;;;5053868;28;20208;-70
2020/12/25 00:27:30;;;;;;;57.55;4.47;;;1.70;70.80;;;;;;5053707;28;20210;-71
2020/12/25 00:29:56;;;;;;;58.65;5.10;;;1.70;71.80;;;;;;5053376;28;20245;-71
2020/12/25 00:32:22;;;;;;;57.38;4.32;;;1.70;71.50;;;;;;5054134;28;20210;-71
2020/12/25 00:34:49;;;;;;;57.55;4.50;;;1.70;71.30;;;;;;5053838;28;20209;-71
2020/12/25 00:37:15;;;;;;;57.35;4.93;;;1.70;71.40;;;;;;5053581;28;20229;-71
2020/12/25 00:39:41;;;;;;;57.20;3.90;;;1.70;71.40;;;;;;5053661;28;20316;-72
2020/12/25 00:42:07;;;;;;;57.28;4.50;;;1.70;69.70;;;;;;5053912;28;20212;-71
2020/12/25 00:44:35;;;;;;;57.60;4.70;;;1.70;69.30;;;;;;5053737;28;20263;-71
2020/12/25 00:47:01;;;;;;;56.90;4.40;;;1.70;69.30;;;;;;5053342;28;20233;-71
2020/12/25 00:49:27;;;;;;;57.63;4.68;;;1.70;68.60;;;;;;5053448;28;20225;-71
2020/12/25 00:51:53;;;;;;;56.92;4.13;;;1.70;68.80;;;;;;5053443;28;20209;-72
2020/12/25 00:54:20;;;;;;;60.45;4.30;;;1.70;69.10;;;;;;5052375;28;20201;-72
2020/12/25 00:56:46;;;;;;;57.72;3.47;;;1.70;69.20;;;;;;5053042;28;20716;-71
2020/12/25 00:59:12;;;;;;;56.50;4.15;;;1.70;69.50;;;;;;5052979;28;20665;-71
2020/12/25 01:01:39;;;;;;;57.75;3.85;;;1.70;70.30;;;;;;5053347;28;20700;-71
2020/12/25 01:04:06;;;;;;;57.50;4.60;;;1.70;69.30;;;;;;5053312;28;20221;-72
2020/12/25 01:06:32;;;;;;;57.40;4.45;;;1.70;68.40;;;;;;5052930;28;20591;-72
2020/12/25 01:08:59;;;;;;;57.38;4.68;;;1.70;68.40;;;;;;5052904;28;20236;-71
2020/12/25 01:11:26;;;;;;;57.33;4.90;;;1.70;68.00;;;;;;5052978;28;20673;-71
2020/12/25 01:13:53;;;;;;;57.50;4.60;;;1.70;68.00;;;;;;5052911;28;20725;-72
2020/12/25 01:16:19;;;;;;;57.53;4.95;;;1.70;68.50;;;;;;5052742;28;20692;-71
2020/12/25 01:18:47;;;;;;;57.15;4.13;;;1.70;66.30;;;;;;5052953;28;20229;-72
2020/12/25 01:21:15;;;;;;;58.28;5.00;;;1.70;67.50;;;;;;5053039;28;20213;-72
2020/12/25 01:23:41;;;;;;;57.22;4.82;;;1.70;66.60;;;;;;5052924;28;20575;-72
2020/12/25 01:26:08;;;;;;;57.10;4.15;;;1.70;66.90;;;;;;5052348;28;20221;-72
2020/12/25 01:28:35;;;;;;;58.40;5.05;;;1.60;68.40;;;;;;5052395;28;20276;-72
2020/12/25 01:31:02;;;;;;;58.08;4.60;;;1.60;68.30;;;;;;5052570;28;20210;-72
2020/12/25 01:33:29;;;;;;;58.63;5.28;;;1.60;68.00;;;;;;5052710;28;20216;-72
2020/12/25 01:35:56;;;;;;;58.20;5.00;;;1.60;68.10;;;;;;5052590;28;20205;-71
2020/12/25 01:38:23;;;;;;;57.20;4.50;;;1.60;68.70;;;;;;5052166;28;20245;-71
2020/12/25 01:40:49;;;;;;;58.47;4.82;;;1.60;69.40;;;;;;5052306;28;20209;-71
2020/12/25 01:43:15;;;;;;;58.60;5.07;;;1.60;71.30;;;;;;5052311;28;20762;-72
2020/12/25 01:45:42;;;;;;;57.58;4.72;;;1.50;69.00;;;;;;5052548;28;20370;-71
2020/12/25 01:48:08;;;;;;;58.90;4.85;;;1.50;70.40;;;;;;5052142;28;20206;-71
2020/12/25 01:50:36;;;;;;;57.72;4.85;;;1.50;71.70;;;;;;5052505;28;20216;-72
2020/12/25 01:53:08;;;;;;;57.83;4.45;;;1.50;70.50;;;;;;5056850;28;20231;-71
2020/12/25 01:55:35;;;;;;;58.28;4.90;;;1.50;71.50;;;;;;5059853;28;20206;-71
2020/12/25 01:58:02;;;;;;;58.03;4.57;;;1.50;71.60;;;;;;5052158;28;20626;-71
2020/12/25 02:00:30;;;;;;;58.70;4.97;;;1.50;72.70;;;;;;5052223;28;20221;-71
2020/12/25 02:02:57;;;;;;;56.97;4.20;;;1.50;73.80;;;;;;5052286;28;20299;-71
2020/12/25 02:05:24;;;;;;;57.80;4.40;;;1.50;74.40;;;;;;5051787;28;20213;-71
2020/12/25 02:07:50;;;;;;;56.92;4.07;;;1.50;76.20;;;;;;5051882;28;20205;-71
2020/12/25 02:10:18;;;;;;;58.10;4.60;;;1.50;76.50;;;;;;5052119;28;20232;-72
2020/12/25 02:12:45;;;;;;;57.80;4.50;;;1.50;77.80;;;;;;5052150;28;20206;-71
2020/12/25 02:15:12;;;;;;;57.30;4.63;;;1.50;79.10;;;;;;5052067;28;20202;-71
2020/12/25 02:17:45;;;;;;;58.47;4.88;;;1.50;79.90;;;;;;5051376;28;20209;-71
2020/12/25 02:20:13;;;;;;;57.78;4.25;;;1.60;81.70;;;;;;5050387;28;20768;-72
2020/12/25 02:22:40;;;;;;;58.33;4.93;;;1.60;83.30;;;;;;5052020;28;20292;-71
2020/12/25 02:25:07;;;;;;;58.25;4.95;;;1.70;85.70;;;;;;5052043;28;20233;-72
2020/12/25 02:27:33;;;;;;;60.13;6.20;;;1.70;87.20;;;;;;5051639;28;20225;-72
2020/12/25 02:30:00;;;;;;;58.88;6.05;;;1.70;88.80;;;;;;5051512;28;20240;-72
2020/12/25 02:32:26;;;;;;;60.67;7.13;;;1.70;88.50;;;;;;5075529;22;20229;-72
2020/12/25 02:34:52;;;;;;;60.95;7.30;;;1.70;87.50;;;;;;5051621;28;20216;-72
2020/12/25 02:37:19;;;;;;;60.30;8.10;;;1.70;88.40;;;;;;5051548;28;20204;-72
2020/12/25 02:39:47;;;;;;;61.65;7.45;;;1.70;88.50;;;;;;5051676;28;20229;-72
2020/12/25 02:42:13;;;;;;;64.60;8.02;;;1.80;89.20;;;;;;5051452;28;20230;-73
2020/12/25 02:44:42;;;;;;;62.95;8.30;;;1.80;87.30;;;;;;5051659;28;20212;-72
2020/12/25 02:47:09;;;;;;;62.30;7.65;;;1.90;87.30;;;;;;5051276;28;20232;-72
2020/12/25 02:49:35;;;;;;;63.63;8.32;;;1.90;87.70;;;;;;5051621;28;20209;-72
2020/12/25 02:52:02;;;;;;;63.72;8.90;;;1.90;87.70;;;;;;5051550;28;20651;-72
2020/12/25 02:54:28;;;;;;;64.45;9.68;;;2.00;85.90;;;;;;5051767;28;20205;-72
2020/12/25 02:56:55;;;;;;;65.95;9.75;;;2.00;88.00;;;;;;5051348;28;20592;-72
2020/12/25 02:59:22;;;;;;;63.88;9.10;;;2.00;86.90;;;;;;5051352;28;20699;-72
2020/12/25 03:01:49;;;;;;;63.72;8.15;;;2.10;86.80;;;;;;5051195;28;20704;-72
2020/12/25 03:04:16;;;;;;;64.53;8.75;;;2.10;87.30;;;;;;5051563;28;20594;-73
2020/12/25 03:06:42;;;;;;;64.00;9.25;;;2.20;86.90;;;;;;5051060;28;20676;-72
2020/12/25 03:09:09;;;;;;;65.55;9.95;;;2.20;86.20;;;;;;5051287;28;20233;-72
2020/12/25 03:11:35;;;;;;;65.55;9.05;;;2.20;86.50;;;;;;5051294;28;20312;-72
2020/12/25 03:14:03;;;;;;;65.85;10.23;;;2.30;86.60;;;;;;5051308;28;20263;-72
2020/12/25 03:16:29;;;;;;;64.55;8.88;;;2.30;86.40;;;;;;5050898;28;20232;-72
2020/12/25 03:18:55;;;;;;;64.40;9.20;;;2.30;85.90;;;;;;5055202;28;20205;-73
2020/12/25 03:21:22;;;;;;;62.80;8.32;;;2.30;86.00;;;;;;5055117;28;20209;-72
2020/12/25 03:23:48;;;;;;;64.85;9.45;;;2.30;85.90;;;;;;5055144;28;20278;-72
2020/12/25 03:26:15;;;;;;;63.75;9.75;;;2.40;85.90;;;;;;5055190;28;20760;-72
2020/12/25 03:28:41;;;;;;;68.20;10.25;;;2.30;85.00;;;;;;5054873;28;20215;-73
2020/12/25 03:31:09;;;;;;;67.78;10.20;;;2.40;87.00;;;;;;5055060;28;20209;-72
2020/12/25 03:33:35;;;;;;;65.50;9.20;;;2.40;86.70;;;;;;5054852;28;20248;-72
2020/12/25 03:36:01;;;;;;;69.78;10.23;;;2.40;86.90;;;;;;5054694;28;20229;-72
2020/12/25 03:38:28;;;;;;;65.45;9.32;;;2.40;85.20;;;;;;5054618;28;20628;-72
2020/12/25 03:40:54;;;;;;;65.13;9.27;;;2.40;84.80;;;;;;5054719;28;20675;-72
2020/12/25 03:43:20;;;;;;;65.10;10.23;;;2.40;84.20;;;;;;5054374;28;20316;-72
2020/12/25 03:45:46;;;;;;;63.92;9.07;;;2.40;85.90;;;;;;5054590;28;20699;-72
2020/12/25 03:48:15;;;;;;;65.57;9.93;;;2.40;85.60;;;;;;5054487;28;20206;-72
2020/12/25 03:50:41;;;;;;;66.20;10.23;;;2.50;86.10;;;;;;5054486;28;20707;-71
2020/12/25 03:53:07;;;;;;;67.05;10.50;;;2.50;86.70;;;;;;5054440;28;20229;-72
2020/12/25 03:55:34;;;;;;;65.45;10.40;;;2.50;85.70;;;;;;5054311;28;20205;-72
2020/12/25 03:58:00;;;;;;;64.93;9.65;;;2.50;85.20;;;;;;5054069;28;20301;-72
2020/12/25 04:00:26;;;;;;;66.85;10.57;;;2.50;84.40;;;;;;5054493;28;20248;-72
2020/12/25 04:02:52;;;;;;;64.70;9.88;;;2.60;87.10;;;;;;5054501;28;20221;-72
2020/12/25 04:05:20;;;;;;;65.50;10.20;;;2.60;86.90;;;;;;5054244;28;20205;-73
2020/12/25 04:07:46;;;;;;;68.45;11.02;;;2.60;86.70;;;;;;5054106;28;20233;-72
2020/12/25 04:10:12;;;;;;;66.18;10.98;;;2.60;86.70;;;;;;5053916;28;20740;-73
2020/12/25 04:12:38;;;;;;;68.32;11.65;;;2.60;86.40;;;;;;5054039;28;20226;-73
2020/12/25 04:15:05;;;;;;;64.88;9.35;;;2.60;86.90;;;;;;5054209;28;20206;-72
2020/12/25 04:17:31;;;;;;;70.57;10.80;;;2.60;86.50;;;;;;5053872;28;20326;-73
2020/12/25 04:19:57;;;;;;;67.43;11.05;;;2.60;87.30;;;;;;5054051;28;20205;-73
2020/12/25 04:22:25;;;;;;;67.25;10.13;;;2.70;86.40;;;;;;5053946;28;20228;-72
2020/12/25 04:24:51;;;;;;;64.90;8.75;;;2.60;86.00;;;;;;5053833;28;20321;-72
2020/12/25 04:27:17;;;;;;;64.40;9.05;;;2.60;86.60;;;;;;5053847;28;20208;-72
2020/12/25 04:29:43;;;;;;;64.05;9.05;;;2.70;86.50;;;;;;5053857;28;20301;-72
2020/12/25 04:32:10;;;;;;;65.35;9.70;;;2.70;86.90;;;;;;5053859;28;20287;-72
2020/12/25 04:34:36;;;;;;;66.75;10.20;;;2.70;86.00;;;;;;5053789;28;20639;-72
2020/12/25 04:37:03;;;;;;;65.15;9.38;;;2.70;83.80;;;;;;5053437;28;20268;-72
2020/12/25 04:39:30;;;;;;;65.70;9.60;;;2.60;86.40;;;;;;5053387;28;20259;-73
2020/12/25 04:41:56;;;;;;;63.85;9.07;;;2.60;82.30;;;;;;5053837;28;20461;-73
2020/12/25 04:44:22;;;;;;;65.55;9.68;;;2.60;86.10;;;;;;5053631;28;20210;-71
2020/12/25 04:46:51;;;;;;;65.10;9.40;;;2.60;85.70;;;;;;5053196;28;20198;-72
2020/12/25 04:49:18;;;;;;;65.43;10.40;;;2.60;81.70;;;;;;5053509;28;20206;-73
2020/12/25 04:51:45;;;;;;;63.13;8.75;;;2.60;81.00;;;;;;5053381;28;20226;-71
2020/12/25 04:54:11;;;;;;;68.05;9.60;;;2.60;81.40;;;;;;5053227;28;20217;-72
2020/12/25 04:56:38;;;;;;;65.53;10.30;;;2.60;80.70;;;;;;5052955;28;20295;-72
2020/12/25 04:59:04;;;;;;;64.60;9.05;;;2.70;81.00;;;;;;5053212;28;20211;-73
2020/12/25 05:01:31;;;;;;;68.20;10.63;;;2.60;81.90;;;;;;5053312;28;20291;-71
2020/12/25 05:03:57;;;;;;;67.57;9.30;;;2.70;80.40;;;;;;5053042;28;20275;-72
2020/12/25 05:06:24;;;;;;;70.72;10.73;;;2.70;80.70;;;;;;5052831;28;20209;-72
2020/12/25 05:08:52;;;;;;;68.10;10.77;;;2.70;79.80;;;;;;5052942;28;20623;-72
2020/12/25 05:11:20;;;;;;;64.95;9.48;;;2.60;79.30;;;;;;5052982;28;20213;-73
2020/12/25 05:13:49;;;;;;;63.72;8.88;;;2.60;78.60;;;;;;5052979;28;20210;-72
2020/12/25 05:16:17;;;;;;;64.03;9.25;;;2.60;76.70;;;;;;5052874;28;20256;-71
2020/12/25 05:18:45;;;;;;;66.70;10.18;;;2.50;75.60;;;;;;5052795;28;20202;-72
2020/12/25 05:21:13;;;;;;;65.22;9.80;;;2.50;77.90;;;;;;5052691;28;20235;-72
2020/12/25 05:23:40;;;;;;;66.60;10.05;;;2.50;77.10;;;;;;5052914;28;20217;-72
2020/12/25 05:26:08;;;;;;;67.53;10.20;;;2.50;75.60;;;;;;5052962;28;20206;-72
2020/12/25 05:28:38;;;;;;;66.25;10.50;;;2.50;75.50;;;;;;5052570;28;20213;-72
2020/12/25 05:31:06;;;;;;;64.57;9.88;;;2.50;75.40;;;;;;5052697;28;20206;-72
2020/12/25 05:33:33;;;;;;;66.70;11.02;;;2.50;78.80;;;;;;5052353;28;20268;-72
2020/12/25 05:36:02;;;;;;;66.85;11.38;;;2.50;80.00;;;;;;5052870;28;20337;-72
2020/12/25 05:38:28;;;;;;;64.85;10.38;;;2.50;77.20;;;;;;5052150;28;20211;-71
2020/12/25 05:40:55;;;;;;;66.78;11.20;;;2.50;79.80;;;;;;5051988;28;20205;-72
2020/12/25 05:43:21;;;;;;;66.00;9.65;;;2.50;80.20;;;;;;5052186;28;20222;-72
2020/12/25 05:45:48;;;;;;;66.25;9.60;;;2.50;80.40;;;;;;5052244;28;20206;-73
2020/12/25 05:48:15;;;;;;;66.95;10.20;;;2.50;80.50;;;;;;5052035;28;20202;-72
2020/12/25 05:50:42;;;;;;;66.15;10.13;;;2.50;81.40;;;;;;5052444;28;20232;-73
2020/12/25 05:53:09;;;;;;;68.32;9.88;;;2.50;81.70;;;;;;5052252;28;20221;-72
2020/12/25 05:55:38;;;;;;;65.93;10.63;;;2.50;81.50;;;;;;5052037;28;20240;-72
2020/12/25 06:01:26;;;;;;;66.50;10.30;;;2.50;82.30;;;;;;5049142;28;20702;-72
2020/12/25 06:03:53;;;;;;;69.20;10.10;;;2.50;82.10;;;;;;5051525;28;20726;-72
2020/12/25 06:06:24;;;;;;;65.53;9.90;;;2.50;82.50;;;;;;5051589;28;20300;-72
2020/12/25 06:08:59;;;;;;;65.03;10.25;;;2.50;82.40;;;;;;5051205;28;20227;-72
2020/12/25 06:11:29;;;;;;;69.00;10.48;;;2.50;82.60;;;;;;5051917;28;20576;-72
2020/12/25 06:13:57;;;;;;;65.05;10.30;;;2.50;82.00;;;;;;5052065;28;20210;-72
2020/12/25 06:16:25;;;;;;;67.90;10.20;;;2.50;83.00;;;;;;5051831;28;20226;-73
2020/12/25 06:19:01;;;;;;;69.22;11.07;;;2.50;83.10;;;;;;5051567;28;20209;-72
2020/12/25 06:21:37;;;;;;;68.35;11.23;;;2.60;81.00;;;;;;5051088;28;20209;-72
2020/12/25 06:24:04;;;;;;;66.15;10.45;;;2.60;83.50;;;;;;5051632;28;20731;-72
2020/12/25 06:26:31;;;;;;;64.88;9.68;;;2.60;82.80;;;;;;5051609;28;20205;-72
2020/12/25 06:29:02;;;;;;;66.28;9.90;;;2.60;82.60;;;;;;5051752;28;20224;-72
2020/12/25 06:31:41;;;;;;;68.75;11.07;;;2.50;82.60;;;;;;5051457;28;20588;-72
2020/12/25 06:34:09;;;;;;;67.93;12.27;;;2.50;80.40;;;;;;5051868;28;20564;-72
2020/12/25 06:36:36;;;;;;;67.35;11.27;;;2.50;82.00;;;;;;5050902;28;20226;-71
2020/12/25 06:39:05;;;;;;;66.13;9.73;;;2.60;81.90;;;;;;5051528;28;20233;-72
2020/12/25 06:41:34;;;;;;;66.32;10.35;;;2.50;79.90;;;;;;5051474;28;20797;-72
2020/12/25 06:44:00;;;;;;;66.32;10.80;;;2.50;79.50;;;;;;5051403;28;20208;-72
2020/12/25 06:46:29;;;;;;;66.28;9.43;;;2.50;82.20;;;;;;5051688;28;20300;-72
2020/12/25 06:49:00;;;;;;;66.65;9.65;;;2.50;80.90;;;;;;5051254;28;20225;-72
2020/12/25 06:51:28;;;;;;;64.18;10.13;;;2.50;82.10;;;;;;5050784;28;20205;-72
2020/12/25 06:53:56;;;;;;;65.00;10.00;;;2.50;76.70;;;;;;5055345;28;20233;-72
2020/12/25 06:56:23;;;;;;;67.18;10.20;;;2.50;82.20;;;;;;5054357;28;20236;-72
2020/12/25 06:58:51;;;;;;;66.22;10.60;;;2.50;83.00;;;;;;5055492;28;20246;-72
2020/12/25 07:01:33;;;;;;;65.75;10.38;;;2.50;82.30;;;;;;5055222;28;20251;-73
2020/12/25 07:04:00;;;;;;;64.55;9.50;;;2.50;82.80;;;;;;5055298;28;20578;-73
2020/12/25 07:06:31;;;;;;;65.85;9.45;;;2.50;84.30;;;;;;5054766;28;20306;-72
2020/12/25 07:09:09;;;;;;;63.95;9.80;;;2.50;84.50;;;;;;5054615;28;20217;-72
2020/12/25 07:11:36;;;;;;;69.68;12.23;;;2.60;85.50;;;;;;5054329;28;20229;-72
2020/12/25 07:14:03;;;;;;;71.18;11.50;;;2.60;86.10;;;;;;5054487;28;20213;-71
2020/12/25 07:16:29;;;;;;;67.97;11.02;;;2.60;85.30;;;;;;5054852;28;20222;-72
2020/12/25 07:18:56;;;;;;;67.28;10.60;;;2.60;85.90;;;;;;5054816;28;20590;-72
2020/12/25 07:21:22;;;;;;;67.50;11.13;;;2.60;82.10;;;;;;5054323;28;20383;-72
2020/12/25 07:23:49;;;;;;;71.65;11.15;;;2.70;84.20;;;;;;5054669;28;20217;-73
2020/12/25 07:26:17;;;;;;;66.32;10.63;;;2.70;85.40;;;;;;5055076;28;20695;-72
2020/12/25 07:28:45;;;;;;;69.97;12.02;;;2.70;85.10;;;;;;5054748;28;20216;-72
2020/12/25 07:31:11;;;;;;;67.60;10.20;;;2.70;84.60;;;;;;5054757;28;20716;-72
2020/12/25 07:33:39;;;;;;;67.70;11.50;;;2.70;86.80;;;;;;5054460;28;20225;-72
2020/12/25 07:36:10;;;;;;;66.72;11.07;;;2.70;84.70;;;;;;5054139;28;20236;-71
2020/12/25 07:38:36;;;;;;;67.18;11.05;;;2.70;85.80;;;;;;5054894;28;20557;-72
2020/12/25 07:41:04;;;;;;;69.60;11.18;;;2.70;83.00;;;;;;5054811;28;20615;-72
2020/12/25 07:43:30;;;;;;;67.63;11.35;;;2.70;82.00;;;;;;5054722;28;20672;-72
2020/12/25 07:45:58;;;;;;;69.13;11.13;;;2.70;81.40;;;;;;5054669;28;20206;-72
2020/12/25 07:48:24;;;;;;;69.53;12.18;;;2.70;81.40;;;;;;5054270;28;20210;-72
2020/12/25 07:50:50;;;;;;;68.30;11.25;;;2.70;81.60;;;;;;5054728;28;20206;-72
2020/12/25 07:53:18;;;;;;;66.97;11.05;;;2.70;81.30;;;;;;5054665;28;20268;-72
2020/12/25 07:55:47;;;;;;;70.90;12.48;;;2.70;81.40;;;;;;5054367;28;20232;-72
2020/12/25 07:58:15;;;;;;;66.47;10.65;;;2.70;81.80;;;;;;5054232;28;20619;-72
2020/12/25 08:00:42;;;;;;;67.03;9.70;;;2.70;82.00;;;;;;5054257;28;20213;-72
2020/12/25 08:03:10;;;;;;;67.20;10.55;;;2.70;82.70;;;;;;5053722;28;20593;-73
2020/12/25 08:05:37;;;;;;;68.35;11.15;;;2.80;83.50;;;;;;5054456;28;20288;-71
2020/12/25 08:08:04;;;;;;;69.30;12.30;;;2.80;84.00;;;;;;5054131;28;20250;-72
2020/12/25 08:10:33;;;;;;;69.68;11.32;;;2.80;83.80;;;;;;5054332;28;20232;-72
2020/12/25 08:13:00;;;;;;;69.38;12.30;;;2.80;83.20;;;;;;5054238;28;20624;-72
2020/12/25 08:15:28;;;;;;;69.50;11.93;;;2.80;83.00;;;;;;5054457;28;20297;-71
2020/12/25 08:17:58;;;;;;;72.07;10.32;;;2.80;82.90;;;;;;5053953;28;20282;-70
2020/12/25 08:20:25;;;;;;;76.13;13.50;;;2.80;82.60;;;;;;5054144;28;20205;-71
2020/12/25 08:22:58;;;;;;;69.70;12.48;;;2.80;82.30;;;;;;5061175;28;20600;-70
2020/12/25 08:25:26;;;;;;;72.63;11.77;;;2.80;81.50;;;;;;5033979;28;20242;-70
2020/12/25 08:27:53;;;;;;;69.47;11.77;;;2.80;80.40;;;;;;5050193;28;20197;-70
2020/12/25 08:30:21;;;;;;;67.38;11.38;;;2.80;81.10;;;;;;5053630;28;20224;-71
2020/12/25 08:32:49;;;;;;;69.38;11.13;;;2.80;80.00;;;;;;5053278;28;20258;-70
2020/12/25 08:35:17;;;;;;;71.35;11.25;;;2.80;79.90;;;;;;5077408;22;20316;-75
2020/12/25 08:37:58;;;;;;;67.72;10.77;;;2.80;78.00;;;;;;5053037;28;20233;-74
2020/12/25 08:40:25;;;;;;;70.30;12.48;;;2.80;76.60;;;;;;5053445;28;20750;-74
2020/12/25 08:42:51;;;;;;;67.35;11.60;;;2.70;73.40;;;;;;5053860;28;20216;-73
2020/12/25 08:45:20;;;;;;;70.30;11.38;;;2.60;74.10;;;;;;5053430;28;20221;-74
2020/12/25 08:48:05;;;;;;;67.97;11.35;;;2.60;75.70;;;;;;5053348;28;20206;-74
2020/12/25 08:50:32;;;;;;;67.40;10.65;;;2.60;74.50;;;;;;5053446;28;20241;-75
2020/12/25 08:53:12;;;;;;;68.05;11.65;;;2.60;75.80;;;;;;5053722;28;20214;-75
2020/12/25 08:55:39;;;;;;;70.07;11.43;;;2.60;76.30;;;;;;5053123;28;20255;-75
2020/12/25 08:58:05;;;;;;;67.95;10.75;;;2.60;76.90;;;;;;5053125;28;20255;-74
2020/12/25 09:00:32;;;;;;;72.45;12.10;;;2.70;77.90;;;;;;5053376;28;20288;-75
2020/12/25 09:02:59;;;;;;;66.80;10.30;;;2.80;78.40;;;;;;5053452;28;20610;-74
2020/12/25 09:05:26;;;;;;;68.97;11.35;;;2.80;79.10;;;;;;5053204;28;20226;-74
2020/12/25 09:07:52;;;;;;;68.00;11.32;;;2.90;79.30;;;;;;5053164;28;20209;-74
2020/12/25 09:10:19;;;;;;;67.97;10.93;;;2.90;79.00;;;;;;5053230;28;20202;-74
2020/12/25 09:12:45;;;;;;;70.90;10.82;;;3.00;79.70;;;;;;5053318;28;20220;-74
2020/12/25 09:15:11;;;;;;;71.85;11.82;;;3.00;80.00;;;;;;5051388;28;20226;-75
2020/12/25 09:17:38;;;;;;;68.15;11.40;;;3.10;80.30;;;;;;5052589;28;20244;-75
2020/12/25 09:20:04;;;;;;;72.53;12.50;;;3.10;81.10;;;;;;5052726;28;20216;-75
2020/12/25 09:22:31;;;;;;;67.53;10.90;;;3.20;81.20;;;;;;5053082;28;20619;-76
2020/12/25 09:24:58;;;;;;;70.57;12.80;;;3.20;82.30;;;;;;5052666;28;20268;-76
2020/12/25 09:27:24;;;;;;;72.18;11.10;;;3.20;83.10;;;;;;5052686;28;20642;-76
2020/12/25 09:29:50;;;;;;;68.85;11.32;;;3.30;83.40;;;;;;5052601;28;20257;-75
2020/12/25 09:32:17;;;;;;;70.30;12.38;;;3.30;83.60;;;;;;5052662;28;20228;-76
2020/12/25 09:34:43;;;;;;;67.75;12.25;;;3.40;82.70;;;;;;5052214;28;20288;-76
2020/12/25 09:37:09;;;;;;;67.38;11.13;;;3.40;83.40;;;;;;5052610;28;20316;-76
2020/12/25 09:39:37;;;;;;;72.85;13.55;;;3.40;84.00;;;;;;5055006;28;20237;-75
2020/12/25 09:42:03;;;;;;;70.72;11.45;;;3.50;83.20;;;;;;5063017;28;20332;-76
2020/12/25 09:44:30;;;;;;;68.90;11.60;;;3.50;83.80;;;;;;5053132;28;20676;-75
2020/12/25 09:46:56;;;;;;;70.75;13.30;;;3.50;83.30;;;;;;5052084;28;20292;-75
2020/12/25 09:49:22;;;;;;;67.82;11.48;;;3.60;83.30;;;;;;5052340;28;20528;-75
2020/12/25 09:51:49;;;;;;;73.90;12.45;;;3.70;82.10;;;;;;5052259;28;20238;-75
2020/12/25 09:54:15;;;;;;;69.32;11.13;;;3.80;80.70;;;;;;5052282;28;20248;-75
2020/12/25 09:56:42;;;;;;;72.35;12.75;;;3.80;79.80;;;;;;5052132;28;20603;-75
2020/12/25 09:59:08;;;;;;;69.28;11.95;;;3.90;77.60;;;;;;5051731;28;20243;-75
2020/12/25 10:01:35;;;;;;;71.50;11.80;;;3.90;74.20;;;;;;5051883;28;20202;-75
2020/12/25 10:04:01;;;;;;;71.78;11.93;;;3.90;71.20;;;;;;5051820;28;20216;-75
2020/12/25 10:06:27;;;;;;;71.95;12.07;;;3.90;69.10;;;;;;5051791;28;20321;-74
2020/12/25 10:08:54;;;;;;;71.60;11.38;;;3.90;68.40;;;;;;5051849;28;20592;-75
2020/12/25 10:11:20;;;;;;;74.05;12.73;;;3.90;70.10;;;;;;5051829;28;20209;-74
2020/12/25 10:13:48;;;;;;;71.63;11.57;;;4.00;71.30;;;;;;5051651;28;20213;-74
2020/12/25 10:16:14;;;;;;;72.35;12.40;;;4.00;67.00;;;;;;5051500;28;20225;-74
2020/12/25 10:18:40;;;;;;;71.72;11.77;;;4.00;63.40;;;;;;5051658;28;20240;-74
2020/12/25 10:21:07;;;;;;;64.90;9.60;;;4.00;62.00;;;;;;5051748;28;20205;-75
2020/12/25 10:23:33;;;;;;;75.65;13.45;;;4.00;62.30;;;;;;5051900;28;20259;-74
2020/12/25 10:25:59;;;;;;;67.85;10.70;;;4.10;61.90;;;;;;5051464;28;20716;-75
2020/12/25 10:28:25;;;;;;;65.00;10.23;;;4.10;56.60;;;;;;5051504;28;20297;-74
2020/12/25 10:30:53;;;;;;;67.32;11.20;;;4.10;54.60;;;;;;5051414;28;20279;-75
2020/12/25 10:33:19;;;;;;;65.28;10.00;;;4.20;53.90;;;;;;5051902;28;20205;-75
2020/12/25 10:35:45;;;;;;;67.75;10.73;;;4.30;54.00;;;;;;5051436;28;20316;-75
2020/12/25 10:38:12;;;;;;;68.72;11.13;;;4.30;56.00;;;;;;5051252;28;20229;-75
2020/12/25 10:40:38;;;;;;;68.45;10.90;;;4.30;49.60;;;;;;5051514;28;20292;-74
2020/12/25 10:43:04;;;;;;;69.43;11.70;;;4.30;45.30;;;;;;5051479;28;20295;-75
2020/12/25 10:45:31;;;;;;;69.25;12.57;;;4.40;42.90;;;;;;5051447;28;20228;-74
2020/12/25 10:47:58;;;;;;;70.40;13.32;;;4.40;44.90;;;;;;5049412;28;20288;-75
2020/12/25 10:50:24;;;;;;;67.88;11.25;;;4.40;63.10;;;;;;5051639;28;20213;-74
2020/12/25 10:52:50;;;;;;;70.18;10.85;;;4.40;39.00;;;;;;5051485;28;20263;-74
2020/12/25 10:55:17;;;;;;;67.60;9.80;;;4.40;32.50;;;;;;5051900;28;20631;-74
2020/12/25 10:57:43;;;;;;;70.32;11.43;;;4.40;29.30;;;;;;5051169;28;20228;-74
2020/12/25 11:00:10;;;;;;;67.78;11.05;;;4.50;26.60;;;;;;5042991;28;20549;-70
2020/12/25 11:02:36;;;;;;;69.05;12.00;;;4.50;25.90;;;;;;5047619;28;20213;-70
2020/12/25 11:05:03;;;;;;;73.13;11.90;;;4.50;23.70;;;;;;5046852;28;20354;-70
2020/12/25 11:07:30;;;;;;;74.95;11.93;;;4.50;21.30;;;;;;5046944;28;20209;-70
2020/12/25 11:09:56;;;;;;;67.68;10.30;;;4.50;19.20;;;;;;5046760;28;20237;-70
2020/12/25 11:12:23;;;;;;;69.53;10.77;;;4.50;14.50;;;;;;5046854;28;20217;-68
2020/12/25 11:14:49;;;;;;;68.03;10.23;;;4.50;13.00;;;;;;5050921;28;20190;-69
2020/12/25 11:17:16;;;;;;;68.95;9.90;;;4.40;8.70;;;;;;5050601;28;20316;-69
2020/12/25 11:19:43;;;;;;;62.63;9.00;;;4.40;8.20;;;;;;5051104;28;20209;-69
2020/12/25 11:22:13;;;;;;;66.57;9.70;;;4.30;5.70;;;;;;5050963;28;20611;-69
2020/12/25 11:24:40;;;;;;;64.05;8.90;;;4.20;5.10;;;;;;5050815;28;20206;-70
2020/12/25 11:27:06;;;;;;;66.28;10.00;;;4.30;4.30;;;;;;5048787;28;20247;-70
2020/12/25 11:29:33;;;;;;;66.75;9.07;;;4.20;4.20;;;;;;5050846;28;20258;-70
2020/12/25 11:31:59;;;;;;;63.47;8.40;;;4.20;1.00;;;;;;5050481;28;20217;-70
2020/12/25 11:34:26;;;;;;;68.25;9.40;;;4.10;1.00;;;;;;5050672;28;20209;-69
2020/12/25 11:36:52;;;;;;;63.08;8.65;;;4.20;1.00;;;;;;5049731;28;20232;-69
2020/12/25 11:39:19;;;;;;;63.25;8.50;;;4.10;1.00;;;;;;5053111;28;20787;-69
2020/12/25 11:41:45;;;;;;;66.15;8.38;;;4.10;1.00;;;;;;5055968;28;20402;-70
2020/12/25 11:44:12;;;;;;;63.95;9.05;;;4.00;1.00;;;;;;5055493;28;20237;-69
2020/12/25 11:46:38;;;;;;;64.88;9.25;;;3.90;1.00;;;;;;5054443;28;20738;-70
2020/12/25 11:49:06;;;;;;;66.22;8.38;;;3.80;1.00;;;;;;5054363;28;20256;-69
2020/12/25 11:51:33;;;;;;;65.15;8.85;;;3.80;1.00;;;;;;5054863;28;20236;-69
2020/12/25 11:53:59;;;;;;;69.70;10.02;;;3.80;1.00;;;;;;5054037;28;20216;-70
2020/12/25 11:56:29;;;;;;;67.63;10.88;;;3.90;3.00;;;;;;5053695;28;20312;-69
2020/12/25 11:58:55;;;;;;;70.18;11.68;;;3.90;5.60;;;;;;5053648;28;20689;-69
2020/12/25 12:01:22;;;;;;;69.03;11.43;;;3.90;7.00;;;;;;5052041;28;20237;-67
2020/12/25 12:03:48;;;;;;;68.30;10.40;;;3.90;4.40;;;;;;5048902;28;20580;-69
2020/12/25 12:06:18;;;;;;;67.47;10.20;;;3.90;1.00;;;;;;5048776;28;20264;-68
2020/12/25 12:08:45;;;;;;;66.00;10.68;;;3.80;1.00;;;;;;5048944;28;20259;-69
2020/12/25 12:11:11;;;;;;;65.22;9.15;;;3.80;2.20;;;;;;5048940;28;20209;-69
2020/12/25 12:13:39;;;;;;;62.70;8.07;;;3.70;1.00;;;;;;5048599;28;20241;-70
2020/12/25 12:16:05;;;;;;;65.13;8.15;;;3.70;1.00;;;;;;5048674;28;20225;-70
2020/12/25 12:18:31;;;;;;;61.85;7.78;;;3.60;1.00;;;;;;5052622;28;20223;-71
2020/12/25 12:20:58;;;;;;;64.40;9.60;;;3.60;1.00;;;;;;5052744;28;20205;-69
2020/12/25 12:23:24;;;;;;;61.72;7.93;;;3.50;1.00;;;;;;5052540;28;20205;-69
2020/12/25 12:25:50;;;;;;;63.60;8.75;;;3.50;1.00;;;;;;5053261;28;20221;-70
2020/12/25 12:28:17;;;;;;;60.75;7.18;;;3.40;1.00;;;;;;5053638;28;20610;-70
2020/12/25 12:30:44;;;;;;;61.03;7.50;;;3.40;1.00;;;;;;5053365;28;20212;-69
2020/12/25 12:33:10;;;;;;;65.75;7.57;;;3.50;1.00;;;;;;5053559;28;20233;-69
2020/12/25 12:35:36;;;;;;;61.53;7.80;;;3.50;1.00;;;;;;5053492;28;20734;-68
2020/12/25 12:38:03;;;;;;;61.55;8.05;;;3.50;1.00;;;;;;5052899;28;20283;-69
2020/12/25 12:40:29;;;;;;;64.75;8.55;;;3.50;1.00;;;;;;5053672;28;20714;-69
2020/12/25 12:42:55;;;;;;;63.72;8.57;;;3.50;1.00;;;;;;5053367;28;20569;-68
2020/12/25 12:45:22;;;;;;;66.85;11.05;;;3.50;1.00;;;;;;5053547;28;20307;-69